sensor_id;sensor_type;location;lat;lon;timestamp;P1;durP1;ratioP1;P2;durP2;ratioP2
68690;SDS011;55675;49.588;8.640;2022-12-18T00:00:53;22.67;;;11.20;;
68690;SDS011;55675;49.588;8.640;2022-12-18T00:03:18;28.10;;;12.20;;
68690;SDS011;55675;49.588;8.640;2022-12-18T00:05:47;26.53;;;12.03;;
68690;SDS011;55675;49.588;8.640;2022-12-18T00:08:13;28.57;;;12.07;;
68690;SDS011;55675;49.588;8.640;2022-12-18T00:10:40;26.57;;;13.23;;
68690;SDS011;55675;49.588;8.640;2022-12-18T00:13:05;30.23;;;11.90;;
68690;SDS011;55675;49.588;8.640;2022-12-18T00:15:33;32.50;;;13.23;;
68690;SDS011;55675;49.588;8.640;2022-12-18T00:17:59;34.40;;;13.50;;
68690;SDS011;55675;49.588;8.640;2022-12-18T00:20:25;29.37;;;11.83;;
68690;SDS011;55675;49.588;8.640;2022-12-18T00:22:54;30.57;;;13.07;;
68690;SDS011;55675;49.588;8.640;2022-12-18T00:25:20;27.43;;;12.50;;
68690;SDS011;55675;49.588;8.640;2022-12-18T00:27:45;33.37;;;14.47;;
68690;SDS011;55675;49.588;8.640;2022-12-18T00:30:11;30.63;;;12.47;;
68690;SDS011;55675;49.588;8.640;2022-12-18T00:32:37;30.77;;;13.40;;
68690;SDS011;55675;49.588;8.640;2022-12-18T00:35:03;24.87;;;13.23;;
68690;SDS011;55675;49.588;8.640;2022-12-18T00:37:29;35.67;;;14.57;;
68690;SDS011;55675;49.588;8.640;2022-12-18T00:39:55;33.97;;;14.40;;
68690;SDS011;55675;49.588;8.640;2022-12-18T00:42:20;29.87;;;14.67;;
68690;SDS011;55675;49.588;8.640;2022-12-18T00:45:05;26.23;;;11.97;;
68690;SDS011;55675;49.588;8.640;2022-12-18T00:47:31;33.37;;;13.90;;
68690;SDS011;55675;49.588;8.640;2022-12-18T00:49:56;31.07;;;12.93;;
68690;SDS011;55675;49.588;8.640;2022-12-18T00:52:22;25.00;;;11.13;;
68690;SDS011;55675;49.588;8.640;2022-12-18T00:54:47;24.27;;;11.70;;
68690;SDS011;55675;49.588;8.640;2022-12-18T00:57:13;26.00;;;12.53;;
68690;SDS011;55675;49.588;8.640;2022-12-18T00:59:38;26.30;;;12.53;;
68690;SDS011;55675;49.588;8.640;2022-12-18T01:02:04;32.57;;;13.27;;
68690;SDS011;55675;49.588;8.640;2022-12-18T01:04:31;27.80;;;11.80;;
68690;SDS011;55675;49.588;8.640;2022-12-18T01:06:57;28.40;;;12.47;;
68690;SDS011;55675;49.588;8.640;2022-12-18T01:09:22;25.67;;;12.97;;
68690;SDS011;55675;49.588;8.640;2022-12-18T01:11:48;28.43;;;12.23;;
68690;SDS011;55675;49.588;8.640;2022-12-18T01:14:13;24.30;;;11.57;;
68690;SDS011;55675;49.588;8.640;2022-12-18T01:16:39;26.30;;;12.53;;
68690;SDS011;55675;49.588;8.640;2022-12-18T01:19:04;25.50;;;10.87;;
68690;SDS011;55675;49.588;8.640;2022-12-18T01:21:30;27.43;;;11.67;;
68690;SDS011;55675;49.588;8.640;2022-12-18T01:23:55;22.37;;;10.73;;
68690;SDS011;55675;49.588;8.640;2022-12-18T01:26:21;29.17;;;12.73;;
68690;SDS011;55675;49.588;8.640;2022-12-18T01:28:48;31.47;;;13.40;;
68690;SDS011;55675;49.588;8.640;2022-12-18T01:31:15;29.10;;;12.80;;
68690;SDS011;55675;49.588;8.640;2022-12-18T01:33:47;27.47;;;12.43;;
68690;SDS011;55675;49.588;8.640;2022-12-18T01:36:19;28.50;;;13.23;;
68690;SDS011;55675;49.588;8.640;2022-12-18T01:38:48;31.27;;;12.47;;
68690;SDS011;55675;49.588;8.640;2022-12-18T01:41:15;30.10;;;12.73;;
68690;SDS011;55675;49.588;8.640;2022-12-18T01:46:17;32.17;;;13.63;;
68690;SDS011;55675;49.588;8.640;2022-12-18T01:48:44;33.27;;;12.43;;
68690;SDS011;55675;49.588;8.640;2022-12-18T01:51:12;30.97;;;12.63;;
68690;SDS011;55675;49.588;8.640;2022-12-18T01:53:38;30.90;;;11.13;;
68690;SDS011;55675;49.588;8.640;2022-12-18T01:56:06;32.07;;;12.63;;
68690;SDS011;55675;49.588;8.640;2022-12-18T01:58:39;30.37;;;12.93;;
68690;SDS011;55675;49.588;8.640;2022-12-18T02:01:06;26.37;;;12.87;;
68690;SDS011;55675;49.588;8.640;2022-12-18T02:03:32;31.93;;;14.40;;
68690;SDS011;55675;49.588;8.640;2022-12-18T02:06:06;36.37;;;14.17;;
68690;SDS011;55675;49.588;8.640;2022-12-18T02:11:37;22.80;;;11.33;;
68690;SDS011;55675;49.588;8.640;2022-12-18T02:17:10;32.97;;;12.57;;
68690;SDS011;55675;49.588;8.640;2022-12-18T02:24:59;28.63;;;12.63;;
68690;SDS011;55675;49.588;8.640;2022-12-18T02:27:38;25.93;;;11.27;;
68690;SDS011;55675;49.588;8.640;2022-12-18T02:30:05;26.70;;;11.83;;
68690;SDS011;55675;49.588;8.640;2022-12-18T02:32:34;25.53;;;10.97;;
68690;SDS011;55675;49.588;8.640;2022-12-18T02:35:08;23.43;;;12.23;;
68690;SDS011;55675;49.588;8.640;2022-12-18T02:37:39;25.90;;;12.47;;
68690;SDS011;55675;49.588;8.640;2022-12-18T02:40:08;23.60;;;10.70;;
68690;SDS011;55675;49.588;8.640;2022-12-18T02:42:35;25.97;;;11.30;;
68690;SDS011;55675;49.588;8.640;2022-12-18T02:45:00;21.70;;;10.23;;
68690;SDS011;55675;49.588;8.640;2022-12-18T02:47:29;22.43;;;10.40;;
68690;SDS011;55675;49.588;8.640;2022-12-18T02:57:50;30.60;;;12.13;;
68690;SDS011;55675;49.588;8.640;2022-12-18T03:00:22;26.47;;;12.20;;
68690;SDS011;55675;49.588;8.640;2022-12-18T03:02:55;29.00;;;11.63;;
68690;SDS011;55675;49.588;8.640;2022-12-18T03:05:36;27.27;;;12.60;;
68690;SDS011;55675;49.588;8.640;2022-12-18T03:08:08;31.60;;;12.87;;
68690;SDS011;55675;49.588;8.640;2022-12-18T03:10:41;26.97;;;11.47;;
68690;SDS011;55675;49.588;8.640;2022-12-18T03:13:13;28.87;;;12.63;;
68690;SDS011;55675;49.588;8.640;2022-12-18T03:15:47;23.53;;;10.37;;
68690;SDS011;55675;49.588;8.640;2022-12-18T03:18:19;28.93;;;11.97;;
68690;SDS011;55675;49.588;8.640;2022-12-18T03:20:49;27.00;;;11.23;;
68690;SDS011;55675;49.588;8.640;2022-12-18T03:23:21;26.30;;;10.97;;
68690;SDS011;55675;49.588;8.640;2022-12-18T03:25:49;20.73;;;10.13;;
68690;SDS011;55675;49.588;8.640;2022-12-18T03:28:21;25.73;;;11.97;;
68690;SDS011;55675;49.588;8.640;2022-12-18T03:30:49;26.60;;;12.40;;
68690;SDS011;55675;49.588;8.640;2022-12-18T03:36:08;24.27;;;11.13;;
68690;SDS011;55675;49.588;8.640;2022-12-18T03:38:34;23.73;;;11.07;;
68690;SDS011;55675;49.588;8.640;2022-12-18T03:41:05;26.53;;;11.77;;
68690;SDS011;55675;49.588;8.640;2022-12-18T03:46:08;12.63;;;7.03;;
68690;SDS011;55675;49.588;8.640;2022-12-18T03:48:43;21.87;;;10.73;;
68690;SDS011;55675;49.588;8.640;2022-12-18T03:51:18;24.70;;;10.97;;
68690;SDS011;55675;49.588;8.640;2022-12-18T03:53:59;22.23;;;10.87;;
68690;SDS011;55675;49.588;8.640;2022-12-18T03:56:28;23.70;;;10.70;;
68690;SDS011;55675;49.588;8.640;2022-12-18T03:58:57;24.70;;;10.67;;
68690;SDS011;55675;49.588;8.640;2022-12-18T04:01:26;24.93;;;11.57;;
68690;SDS011;55675;49.588;8.640;2022-12-18T04:03:56;29.13;;;11.77;;
68690;SDS011;55675;49.588;8.640;2022-12-18T04:06:24;32.20;;;12.57;;
68690;SDS011;55675;49.588;8.640;2022-12-18T04:08:50;26.87;;;11.33;;
68690;SDS011;55675;49.588;8.640;2022-12-18T04:11:16;22.77;;;9.43;;
68690;SDS011;55675;49.588;8.640;2022-12-18T04:13:42;18.13;;;8.83;;
68690;SDS011;55675;49.588;8.640;2022-12-18T04:16:08;23.13;;;11.30;;
68690;SDS011;55675;49.588;8.640;2022-12-18T04:18:34;28.17;;;12.07;;
68690;SDS011;55675;49.588;8.640;2022-12-18T04:21:00;26.57;;;11.67;;
68690;SDS011;55675;49.588;8.640;2022-12-18T04:23:26;26.17;;;11.00;;
68690;SDS011;55675;49.588;8.640;2022-12-18T04:25:51;26.23;;;11.03;;
68690;SDS011;55675;49.588;8.640;2022-12-18T04:28:17;25.80;;;11.50;;
68690;SDS011;55675;49.588;8.640;2022-12-18T04:30:42;21.90;;;10.97;;
68690;SDS011;55675;49.588;8.640;2022-12-18T04:33:09;28.53;;;11.73;;
68690;SDS011;55675;49.588;8.640;2022-12-18T04:35:35;28.90;;;11.53;;
68690;SDS011;55675;49.588;8.640;2022-12-18T04:38:01;24.73;;;12.13;;
68690;SDS011;55675;49.588;8.640;2022-12-18T04:40:26;23.33;;;10.90;;
68690;SDS011;55675;49.588;8.640;2022-12-18T04:42:52;29.40;;;13.03;;
68690;SDS011;55675;49.588;8.640;2022-12-18T04:45:17;26.60;;;11.37;;
68690;SDS011;55675;49.588;8.640;2022-12-18T04:47:43;28.97;;;12.57;;
68690;SDS011;55675;49.588;8.640;2022-12-18T04:50:09;23.77;;;11.03;;
68690;SDS011;55675;49.588;8.640;2022-12-18T04:52:34;22.80;;;9.87;;
68690;SDS011;55675;49.588;8.640;2022-12-18T04:55:00;31.60;;;12.73;;
68690;SDS011;55675;49.588;8.640;2022-12-18T04:57:25;26.50;;;11.23;;
68690;SDS011;55675;49.588;8.640;2022-12-18T04:59:51;27.00;;;12.33;;
68690;SDS011;55675;49.588;8.640;2022-12-18T05:02:16;28.93;;;12.00;;
68690;SDS011;55675;49.588;8.640;2022-12-18T05:04:42;25.00;;;11.00;;
68690;SDS011;55675;49.588;8.640;2022-12-18T05:07:07;25.20;;;12.30;;
68690;SDS011;55675;49.588;8.640;2022-12-18T05:09:33;24.80;;;11.27;;
68690;SDS011;55675;49.588;8.640;2022-12-18T05:11:58;26.03;;;11.53;;
68690;SDS011;55675;49.588;8.640;2022-12-18T05:14:24;29.83;;;11.63;;
68690;SDS011;55675;49.588;8.640;2022-12-18T05:16:49;24.33;;;11.10;;
68690;SDS011;55675;49.588;8.640;2022-12-18T05:19:15;28.90;;;12.63;;
68690;SDS011;55675;49.588;8.640;2022-12-18T05:21:40;29.43;;;11.80;;
68690;SDS011;55675;49.588;8.640;2022-12-18T05:24:06;26.77;;;12.17;;
68690;SDS011;55675;49.588;8.640;2022-12-18T05:26:31;30.27;;;11.90;;
68690;SDS011;55675;49.588;8.640;2022-12-18T05:28:57;33.27;;;14.23;;
68690;SDS011;55675;49.588;8.640;2022-12-18T05:31:22;26.20;;;10.70;;
68690;SDS011;55675;49.588;8.640;2022-12-18T05:33:48;26.90;;;11.07;;
68690;SDS011;55675;49.588;8.640;2022-12-18T05:36:13;28.90;;;12.13;;
68690;SDS011;55675;49.588;8.640;2022-12-18T05:38:39;22.17;;;10.37;;
68690;SDS011;55675;49.588;8.640;2022-12-18T05:41:05;28.33;;;11.57;;
68690;SDS011;55675;49.588;8.640;2022-12-18T05:43:33;25.10;;;10.83;;
68690;SDS011;55675;49.588;8.640;2022-12-18T05:46:07;23.93;;;10.77;;
68690;SDS011;55675;49.588;8.640;2022-12-18T05:48:36;26.73;;;10.43;;
68690;SDS011;55675;49.588;8.640;2022-12-18T05:51:05;26.73;;;12.33;;
68690;SDS011;55675;49.588;8.640;2022-12-18T05:53:32;24.80;;;10.93;;
68690;SDS011;55675;49.588;8.640;2022-12-18T05:56:02;31.73;;;13.43;;
68690;SDS011;55675;49.588;8.640;2022-12-18T05:58:29;29.83;;;11.50;;
68690;SDS011;55675;49.588;8.640;2022-12-18T06:00:55;19.87;;;9.03;;
68690;SDS011;55675;49.588;8.640;2022-12-18T06:03:21;24.00;;;11.40;;
68690;SDS011;55675;49.588;8.640;2022-12-18T06:05:46;32.83;;;13.10;;
68690;SDS011;55675;49.588;8.640;2022-12-18T06:08:12;23.90;;;12.03;;
68690;SDS011;55675;49.588;8.640;2022-12-18T06:10:38;19.57;;;9.20;;
68690;SDS011;55675;49.588;8.640;2022-12-18T06:13:04;30.60;;;11.90;;
68690;SDS011;55675;49.588;8.640;2022-12-18T06:15:31;19.20;;;8.40;;
68690;SDS011;55675;49.588;8.640;2022-12-18T06:17:57;28.87;;;12.17;;
68690;SDS011;55675;49.588;8.640;2022-12-18T06:20:22;30.13;;;11.70;;
68690;SDS011;55675;49.588;8.640;2022-12-18T06:22:48;29.13;;;12.03;;
68690;SDS011;55675;49.588;8.640;2022-12-18T06:25:13;27.53;;;12.73;;
68690;SDS011;55675;49.588;8.640;2022-12-18T06:27:39;28.40;;;11.93;;
68690;SDS011;55675;49.588;8.640;2022-12-18T06:30:05;28.60;;;11.97;;
68690;SDS011;55675;49.588;8.640;2022-12-18T06:32:31;29.70;;;13.07;;
68690;SDS011;55675;49.588;8.640;2022-12-18T06:34:57;23.77;;;11.43;;
68690;SDS011;55675;49.588;8.640;2022-12-18T06:37:22;29.00;;;11.43;;
68690;SDS011;55675;49.588;8.640;2022-12-18T06:39:52;29.80;;;12.97;;
68690;SDS011;55675;49.588;8.640;2022-12-18T06:42:18;26.30;;;10.70;;
68690;SDS011;55675;49.588;8.640;2022-12-18T06:44:44;31.53;;;10.10;;
68690;SDS011;55675;49.588;8.640;2022-12-18T06:47:09;26.30;;;10.00;;
68690;SDS011;55675;49.588;8.640;2022-12-18T06:49:35;29.03;;;12.57;;
68690;SDS011;55675;49.588;8.640;2022-12-18T06:52:00;29.70;;;11.23;;
68690;SDS011;55675;49.588;8.640;2022-12-18T06:54:26;32.10;;;11.90;;
68690;SDS011;55675;49.588;8.640;2022-12-18T06:56:51;24.30;;;12.13;;
68690;SDS011;55675;49.588;8.640;2022-12-18T06:59:17;31.43;;;12.27;;
68690;SDS011;55675;49.588;8.640;2022-12-18T07:01:42;28.97;;;11.97;;
68690;SDS011;55675;49.588;8.640;2022-12-18T07:04:08;28.97;;;11.63;;
68690;SDS011;55675;49.588;8.640;2022-12-18T07:06:33;35.13;;;13.60;;
68690;SDS011;55675;49.588;8.640;2022-12-18T07:08:59;28.17;;;11.83;;
68690;SDS011;55675;49.588;8.640;2022-12-18T07:11:24;31.83;;;11.93;;
68690;SDS011;55675;49.588;8.640;2022-12-18T07:13:50;19.60;;;8.43;;
68690;SDS011;55675;49.588;8.640;2022-12-18T07:16:17;30.77;;;10.47;;
68690;SDS011;55675;49.588;8.640;2022-12-18T07:18:44;25.77;;;11.37;;
68690;SDS011;55675;49.588;8.640;2022-12-18T07:21:12;32.57;;;14.83;;
68690;SDS011;55675;49.588;8.640;2022-12-18T07:23:39;17.77;;;8.43;;
68690;SDS011;55675;49.588;8.640;2022-12-18T07:26:11;22.00;;;9.70;;
68690;SDS011;55675;49.588;8.640;2022-12-18T07:28:38;29.53;;;12.53;;
68690;SDS011;55675;49.588;8.640;2022-12-18T07:31:05;26.77;;;11.63;;
68690;SDS011;55675;49.588;8.640;2022-12-18T07:33:32;26.20;;;11.37;;
68690;SDS011;55675;49.588;8.640;2022-12-18T07:36:02;25.67;;;12.03;;
68690;SDS011;55675;49.588;8.640;2022-12-18T07:38:29;29.63;;;12.07;;
68690;SDS011;55675;49.588;8.640;2022-12-18T07:40:59;28.60;;;12.33;;
68690;SDS011;55675;49.588;8.640;2022-12-18T07:43:29;23.73;;;12.10;;
68690;SDS011;55675;49.588;8.640;2022-12-18T07:45:55;27.73;;;13.03;;
68690;SDS011;55675;49.588;8.640;2022-12-18T07:48:20;30.47;;;12.70;;
68690;SDS011;55675;49.588;8.640;2022-12-18T07:50:46;27.90;;;13.13;;
68690;SDS011;55675;49.588;8.640;2022-12-18T07:53:12;31.13;;;12.97;;
68690;SDS011;55675;49.588;8.640;2022-12-18T07:55:39;30.30;;;12.80;;
68690;SDS011;55675;49.588;8.640;2022-12-18T07:58:06;29.63;;;11.30;;
68690;SDS011;55675;49.588;8.640;2022-12-18T08:00:32;27.77;;;11.67;;
68690;SDS011;55675;49.588;8.640;2022-12-18T08:02:57;29.37;;;12.43;;
68690;SDS011;55675;49.588;8.640;2022-12-18T08:05:23;26.63;;;11.20;;
68690;SDS011;55675;49.588;8.640;2022-12-18T08:07:48;26.00;;;11.37;;
68690;SDS011;55675;49.588;8.640;2022-12-18T08:10:14;23.77;;;11.73;;
68690;SDS011;55675;49.588;8.640;2022-12-18T08:12:40;23.67;;;10.30;;
68690;SDS011;55675;49.588;8.640;2022-12-18T08:15:05;30.63;;;11.57;;
68690;SDS011;55675;49.588;8.640;2022-12-18T08:17:31;27.90;;;12.33;;
68690;SDS011;55675;49.588;8.640;2022-12-18T08:19:57;25.10;;;12.33;;
68690;SDS011;55675;49.588;8.640;2022-12-18T08:22:22;28.67;;;12.93;;
68690;SDS011;55675;49.588;8.640;2022-12-18T08:24:48;31.40;;;12.60;;
68690;SDS011;55675;49.588;8.640;2022-12-18T08:27:13;28.10;;;11.60;;
68690;SDS011;55675;49.588;8.640;2022-12-18T08:29:39;27.47;;;11.63;;
68690;SDS011;55675;49.588;8.640;2022-12-18T08:32:04;30.20;;;12.03;;
68690;SDS011;55675;49.588;8.640;2022-12-18T08:34:30;26.97;;;11.47;;
68690;SDS011;55675;49.588;8.640;2022-12-18T08:36:56;29.37;;;12.77;;
68690;SDS011;55675;49.588;8.640;2022-12-18T08:39:21;24.97;;;11.67;;
68690;SDS011;55675;49.588;8.640;2022-12-18T08:41:47;26.27;;;10.80;;
68690;SDS011;55675;49.588;8.640;2022-12-18T08:44:32;29.40;;;11.53;;
68690;SDS011;55675;49.588;8.640;2022-12-18T08:47:04;27.10;;;11.73;;
68690;SDS011;55675;49.588;8.640;2022-12-18T08:49:30;25.80;;;12.60;;
68690;SDS011;55675;49.588;8.640;2022-12-18T08:51:56;25.47;;;12.40;;
68690;SDS011;55675;49.588;8.640;2022-12-18T08:54:23;29.53;;;12.70;;
68690;SDS011;55675;49.588;8.640;2022-12-18T08:56:49;29.07;;;13.67;;
68690;SDS011;55675;49.588;8.640;2022-12-18T08:59:18;26.70;;;11.27;;
68690;SDS011;55675;49.588;8.640;2022-12-18T09:01:44;31.47;;;12.23;;
68690;SDS011;55675;49.588;8.640;2022-12-18T09:04:11;27.53;;;12.27;;
68690;SDS011;55675;49.588;8.640;2022-12-18T09:06:37;27.83;;;12.27;;
68690;SDS011;55675;49.588;8.640;2022-12-18T09:09:03;32.40;;;12.83;;
68690;SDS011;55675;49.588;8.640;2022-12-18T09:11:29;24.50;;;12.03;;
68690;SDS011;55675;49.588;8.640;2022-12-18T09:13:56;34.47;;;13.57;;
68690;SDS011;55675;49.588;8.640;2022-12-18T09:16:23;31.03;;;12.47;;
68690;SDS011;55675;49.588;8.640;2022-12-18T09:18:49;27.17;;;13.50;;
68690;SDS011;55675;49.588;8.640;2022-12-18T09:21:19;33.80;;;14.03;;
68690;SDS011;55675;49.588;8.640;2022-12-18T09:23:51;30.47;;;13.70;;
68690;SDS011;55675;49.588;8.640;2022-12-18T09:26:18;27.13;;;12.13;;
68690;SDS011;55675;49.588;8.640;2022-12-18T09:28:43;27.23;;;12.63;;
68690;SDS011;55675;49.588;8.640;2022-12-18T09:31:10;30.03;;;13.90;;
68690;SDS011;55675;49.588;8.640;2022-12-18T09:33:37;27.57;;;13.30;;
68690;SDS011;55675;49.588;8.640;2022-12-18T09:36:04;22.37;;;12.23;;
68690;SDS011;55675;49.588;8.640;2022-12-18T09:38:31;24.97;;;11.57;;
68690;SDS011;55675;49.588;8.640;2022-12-18T09:40:59;23.67;;;11.13;;
68690;SDS011;55675;49.588;8.640;2022-12-18T09:43:33;29.47;;;13.37;;
68690;SDS011;55675;49.588;8.640;2022-12-18T09:46:07;26.83;;;12.23;;
68690;SDS011;55675;49.588;8.640;2022-12-18T09:48:44;30.83;;;12.97;;
68690;SDS011;55675;49.588;8.640;2022-12-18T09:51:14;26.47;;;11.43;;
68690;SDS011;55675;49.588;8.640;2022-12-18T09:53:44;17.17;;;9.00;;
68690;SDS011;55675;49.588;8.640;2022-12-18T09:56:16;22.50;;;10.63;;
68690;SDS011;55675;49.588;8.640;2022-12-18T09:58:49;24.83;;;11.40;;
68690;SDS011;55675;49.588;8.640;2022-12-18T10:01:25;29.60;;;12.97;;
68690;SDS011;55675;49.588;8.640;2022-12-18T10:03:52;30.40;;;12.87;;
68690;SDS011;55675;49.588;8.640;2022-12-18T10:06:42;26.30;;;12.70;;
68690;SDS011;55675;49.588;8.640;2022-12-18T10:09:17;27.90;;;12.37;;
68690;SDS011;55675;49.588;8.640;2022-12-18T10:14:26;26.97;;;11.57;;
68690;SDS011;55675;49.588;8.640;2022-12-18T10:19:56;28.33;;;12.00;;
68690;SDS011;55675;49.588;8.640;2022-12-18T10:27:37;29.03;;;12.23;;
68690;SDS011;55675;49.588;8.640;2022-12-18T10:30:04;26.70;;;11.97;;
68690;SDS011;55675;49.588;8.640;2022-12-18T10:32:38;25.20;;;10.50;;
68690;SDS011;55675;49.588;8.640;2022-12-18T10:35:04;22.70;;;12.07;;
68690;SDS011;55675;49.588;8.640;2022-12-18T10:37:36;27.60;;;11.97;;
68690;SDS011;55675;49.588;8.640;2022-12-18T10:40:30;23.20;;;11.43;;
68690;SDS011;55675;49.588;8.640;2022-12-18T10:43:03;22.77;;;11.30;;
68690;SDS011;55675;49.588;8.640;2022-12-18T10:45:39;27.20;;;11.17;;
68690;SDS011;55675;49.588;8.640;2022-12-18T10:48:17;17.03;;;8.97;;
68690;SDS011;55675;49.588;8.640;2022-12-18T10:50:46;27.10;;;11.90;;
68690;SDS011;55675;49.588;8.640;2022-12-18T10:53:18;22.27;;;10.53;;
68690;SDS011;55675;49.588;8.640;2022-12-18T10:55:46;18.57;;;9.13;;
68690;SDS011;55675;49.588;8.640;2022-12-18T10:58:18;24.97;;;11.97;;
68690;SDS011;55675;49.588;8.640;2022-12-18T11:01:01;29.80;;;11.93;;
68690;SDS011;55675;49.588;8.640;2022-12-18T11:03:58;29.53;;;13.77;;
68690;SDS011;55675;49.588;8.640;2022-12-18T11:06:26;29.73;;;13.07;;
68690;SDS011;55675;49.588;8.640;2022-12-18T11:09:02;32.53;;;14.40;;
68690;SDS011;55675;49.588;8.640;2022-12-18T11:11:48;29.40;;;13.43;;
68690;SDS011;55675;49.588;8.640;2022-12-18T11:14:21;28.10;;;13.20;;
68690;SDS011;55675;49.588;8.640;2022-12-18T11:17:18;27.70;;;13.67;;
68690;SDS011;55675;49.588;8.640;2022-12-18T11:19:43;28.33;;;12.20;;
68690;SDS011;55675;49.588;8.640;2022-12-18T11:22:19;27.73;;;12.80;;
68690;SDS011;55675;49.588;8.640;2022-12-18T11:25:07;32.63;;;13.83;;
68690;SDS011;55675;49.588;8.640;2022-12-18T11:27:47;31.30;;;15.43;;
68690;SDS011;55675;49.588;8.640;2022-12-18T11:30:21;28.23;;;12.83;;
68690;SDS011;55675;49.588;8.640;2022-12-18T11:32:54;28.33;;;13.23;;
68690;SDS011;55675;49.588;8.640;2022-12-18T11:35:33;29.90;;;12.03;;
68690;SDS011;55675;49.588;8.640;2022-12-18T11:38:21;32.27;;;13.50;;
68690;SDS011;55675;49.588;8.640;2022-12-18T11:40:54;31.57;;;13.27;;
68690;SDS011;55675;49.588;8.640;2022-12-18T11:43:28;31.47;;;14.03;;
68690;SDS011;55675;49.588;8.640;2022-12-18T11:46:08;28.93;;;13.67;;
68690;SDS011;55675;49.588;8.640;2022-12-18T11:48:43;32.87;;;14.07;;
68690;SDS011;55675;49.588;8.640;2022-12-18T11:51:23;30.57;;;15.13;;
68690;SDS011;55675;49.588;8.640;2022-12-18T11:53:54;35.83;;;17.53;;
68690;SDS011;55675;49.588;8.640;2022-12-18T11:56:30;30.67;;;14.53;;
68690;SDS011;55675;49.588;8.640;2022-12-18T11:59:49;30.97;;;15.83;;
68690;SDS011;55675;49.588;8.640;2022-12-18T12:04:38;29.07;;;14.57;;
68690;SDS011;55675;49.588;8.640;2022-12-18T12:10:14;35.17;;;16.57;;
68690;SDS011;55675;49.588;8.640;2022-12-18T12:16:10;36.57;;;16.03;;
68690;SDS011;55675;49.588;8.640;2022-12-18T12:19:02;35.40;;;16.07;;
68690;SDS011;55675;49.588;8.640;2022-12-18T12:21:43;39.00;;;17.70;;
68690;SDS011;55675;49.588;8.640;2022-12-18T12:30:25;32.70;;;15.20;;
68690;SDS011;55675;49.588;8.640;2022-12-18T12:33:24;32.87;;;16.57;;
68690;SDS011;55675;49.588;8.640;2022-12-18T12:39:06;29.10;;;14.07;;
68690;SDS011;55675;49.588;8.640;2022-12-18T12:41:35;36.90;;;16.53;;
68690;SDS011;55675;49.588;8.640;2022-12-18T12:44:23;28.47;;;14.70;;
68690;SDS011;55675;49.588;8.640;2022-12-18T12:46:55;33.33;;;14.80;;
68690;SDS011;55675;49.588;8.640;2022-12-18T12:49:25;28.90;;;14.23;;
68690;SDS011;55675;49.588;8.640;2022-12-18T12:51:58;32.27;;;15.10;;
68690;SDS011;55675;49.588;8.640;2022-12-18T12:54:38;30.33;;;15.77;;
68690;SDS011;55675;49.588;8.640;2022-12-18T12:57:08;26.43;;;15.23;;
68690;SDS011;55675;49.588;8.640;2022-12-18T13:02:59;30.33;;;16.97;;
68690;SDS011;55675;49.588;8.640;2022-12-18T13:05:53;30.83;;;15.23;;
68690;SDS011;55675;49.588;8.640;2022-12-18T13:08:31;32.37;;;16.33;;
68690;SDS011;55675;49.588;8.640;2022-12-18T13:11:28;32.97;;;15.87;;
68690;SDS011;55675;49.588;8.640;2022-12-18T13:14:20;36.00;;;15.87;;
68690;SDS011;55675;49.588;8.640;2022-12-18T13:16:47;33.70;;;15.60;;
68690;SDS011;55675;49.588;8.640;2022-12-18T13:19:21;36.20;;;16.60;;
68690;SDS011;55675;49.588;8.640;2022-12-18T13:21:52;31.80;;;15.50;;
68690;SDS011;55675;49.588;8.640;2022-12-18T13:24:23;33.50;;;15.97;;
68690;SDS011;55675;49.588;8.640;2022-12-18T13:26:52;37.60;;;16.60;;
68690;SDS011;55675;49.588;8.640;2022-12-18T13:32:19;34.80;;;16.23;;
68690;SDS011;55675;49.588;8.640;2022-12-18T13:34:48;29.63;;;15.47;;
68690;SDS011;55675;49.588;8.640;2022-12-18T13:37:41;33.00;;;16.17;;
68690;SDS011;55675;49.588;8.640;2022-12-18T13:45:47;32.33;;;15.87;;
68690;SDS011;55675;49.588;8.640;2022-12-18T13:48:23;31.70;;;14.27;;
68690;SDS011;55675;49.588;8.640;2022-12-18T13:50:52;30.43;;;14.37;;
68690;SDS011;55675;49.588;8.640;2022-12-18T13:53:58;31.67;;;14.50;;
68690;SDS011;55675;49.588;8.640;2022-12-18T13:56:21;31.03;;;15.73;;
68690;SDS011;55675;49.588;8.640;2022-12-18T13:59:12;31.77;;;15.50;;
68690;SDS011;55675;49.588;8.640;2022-12-18T14:01:44;34.00;;;16.77;;
68690;SDS011;55675;49.588;8.640;2022-12-18T14:04:19;28.63;;;15.87;;
68690;SDS011;55675;49.588;8.640;2022-12-18T14:06:57;30.57;;;15.53;;
68690;SDS011;55675;49.588;8.640;2022-12-18T14:09:28;28.20;;;14.43;;
68690;SDS011;55675;49.588;8.640;2022-12-18T14:12:16;30.20;;;14.03;;
68690;SDS011;55675;49.588;8.640;2022-12-18T14:15:06;28.63;;;14.83;;
68690;SDS011;55675;49.588;8.640;2022-12-18T14:17:41;28.47;;;14.13;;
68690;SDS011;55675;49.588;8.640;2022-12-18T14:20:12;30.93;;;14.67;;
68690;SDS011;55675;49.588;8.640;2022-12-18T14:22:42;30.73;;;14.40;;
68690;SDS011;55675;49.588;8.640;2022-12-18T14:27:38;33.07;;;15.73;;
68690;SDS011;55675;49.588;8.640;2022-12-18T14:33:00;31.23;;;14.30;;
68690;SDS011;55675;49.588;8.640;2022-12-18T14:35:27;34.07;;;15.07;;
68690;SDS011;55675;49.588;8.640;2022-12-18T14:37:59;27.93;;;15.17;;
68690;SDS011;55675;49.588;8.640;2022-12-18T14:40:41;34.00;;;16.57;;
68690;SDS011;55675;49.588;8.640;2022-12-18T14:43:11;33.73;;;16.70;;
68690;SDS011;55675;49.588;8.640;2022-12-18T14:45:37;29.17;;;16.20;;
68690;SDS011;55675;49.588;8.640;2022-12-18T14:48:08;32.80;;;16.13;;
68690;SDS011;55675;49.588;8.640;2022-12-18T14:50:42;34.07;;;15.87;;
68690;SDS011;55675;49.588;8.640;2022-12-18T14:53:21;33.77;;;17.03;;
68690;SDS011;55675;49.588;8.640;2022-12-18T14:55:51;35.83;;;17.80;;
68690;SDS011;55675;49.588;8.640;2022-12-18T14:58:16;32.23;;;15.83;;
68690;SDS011;55675;49.588;8.640;2022-12-18T15:00:43;29.07;;;16.10;;
68690;SDS011;55675;49.588;8.640;2022-12-18T15:03:08;31.03;;;15.20;;
68690;SDS011;55675;49.588;8.640;2022-12-18T15:05:35;34.60;;;16.93;;
68690;SDS011;55675;49.588;8.640;2022-12-18T15:08:01;31.07;;;16.97;;
68690;SDS011;55675;49.588;8.640;2022-12-18T15:10:31;31.70;;;16.70;;
68690;SDS011;55675;49.588;8.640;2022-12-18T15:18:03;33.57;;;17.87;;
68690;SDS011;55675;49.588;8.640;2022-12-18T15:20:33;31.90;;;18.30;;
68690;SDS011;55675;49.588;8.640;2022-12-18T15:23:04;35.77;;;17.57;;
68690;SDS011;55675;49.588;8.640;2022-12-18T15:25:37;34.77;;;16.67;;
68690;SDS011;55675;49.588;8.640;2022-12-18T15:28:03;33.83;;;18.57;;
68690;SDS011;55675;49.588;8.640;2022-12-18T15:30:39;39.23;;;17.33;;
68690;SDS011;55675;49.588;8.640;2022-12-18T15:33:23;36.10;;;18.00;;
68690;SDS011;55675;49.588;8.640;2022-12-18T15:35:57;34.13;;;17.33;;
68690;SDS011;55675;49.588;8.640;2022-12-18T15:38:26;41.30;;;19.40;;
68690;SDS011;55675;49.588;8.640;2022-12-18T15:40:53;41.00;;;18.73;;
68690;SDS011;55675;49.588;8.640;2022-12-18T15:43:20;43.23;;;18.27;;
68690;SDS011;55675;49.588;8.640;2022-12-18T15:46:03;36.87;;;17.77;;
68690;SDS011;55675;49.588;8.640;2022-12-18T15:48:32;33.20;;;17.23;;
68690;SDS011;55675;49.588;8.640;2022-12-18T15:50:59;34.73;;;17.47;;
68690;SDS011;55675;49.588;8.640;2022-12-18T15:53:25;33.10;;;18.00;;
68690;SDS011;55675;49.588;8.640;2022-12-18T15:55:55;36.23;;;16.97;;